首页
METAR-TAF:

METAR-TAF

机场 :

皮亚琴察, 意大利

纬度: 44-55N, 经度: 009-44E, 海拔: 134米

当前天气观测

该预报发布于59分钟前的11:55 UTC
风速3节,风向北转东北
温度 20°C
湿度 37%
气压 1028 hPa
能见度10公里或以上
1500米以下无云,无积雨云

METAR: LIMS 071155Z 03003KT CAVOK 20/05 Q1028 RMK SKC VIS MIN 9999 WIND THR30 03003KT BLU

时间: 14:54 (12:54 UTC)


TAF: 丢失

超过4000个机场的气象观测和天气预报(METAR&TAF报告)。

可查询的气象台以黄色和红色小点在地图上表示。

将鼠标移到小点上方,可查看气象台名称。

然后点击查看天气观测和预报。

如需切换地图:点击带黑十字的绿色按钮放大地图;点击带横线的绿色按钮缩小地图;或者点击绿色箭头查看邻近地区的地图。


METAR-TAF: